Time;durP1;ratioP1;P1;durP2;ratioP2;P2;SDS_P1;SDS_P2;PMS_P1;PMS_P2;Temp;Humidity;BMP_temperature;BMP_pressure;BME280_temperature;BME280_humidity;BME280_pressure;Samples;Min_cycle;Max_cycle;Signal;HPM_P1;HPM_P2
2023/10/31 00:00:14;;;;;;;7.80;3.10;;;22.80;71.20;;;;;;222171;1267;22521;-58
2023/10/31 00:05:38;;;;;;;5.50;3.30;;;22.80;71.10;;;;;;221788;1270;22515;-58
2023/10/31 00:10:44;;;;;;;7.00;3.40;;;22.80;70.40;;;;;;222086;1246;23690;-55
2023/10/31 00:15:48;;;;;;;6.10;3.10;;;22.80;70.90;;;;;;222143;1263;23058;-59
2023/10/31 00:20:53;;;;;;;4.50;3.40;;;22.80;71.00;;;;;;222488;1270;22540;-58
2023/10/31 00:25:57;;;;;;;4.40;3.20;;;22.70;70.90;;;;;;221813;1270;24088;-57
2023/10/31 00:31:03;;;;;;;6.20;3.20;;;22.80;71.10;;;;;;223989;1270;24174;-56
2023/10/31 00:36:08;;;;;;;4.60;3.60;;;22.80;70.70;;;;;;229986;1262;22935;-57
2023/10/31 00:41:12;;;;;;;4.00;3.30;;;22.80;70.20;;;;;;222873;1270;24124;-57
2023/10/31 00:46:16;;;;;;;4.10;3.00;;;22.90;70.30;;;;;;222075;1263;22639;-58
2023/10/31 00:51:21;;;;;;;3.80;3.20;;;22.80;70.40;;;;;;222087;1270;25045;-56
2023/10/31 00:56:25;;;;;;;4.10;3.00;;;22.80;70.50;;;;;;222317;1268;25276;-58
2023/10/31 01:01:29;;;;;;;4.40;3.10;;;22.70;70.70;;;;;;222161;1267;24272;-57
2023/10/31 01:06:39;;;;;;;3.70;3.30;;;22.70;70.70;;;;;;222197;1270;24327;-58
2023/10/31 01:11:43;;;;;;;5.90;3.60;;;22.70;70.70;;;;;;222217;1262;22596;-58
2023/10/31 01:16:47;;;;;;;3.40;3.00;;;22.70;70.90;;;;;;221990;1269;22511;-57
2023/10/31 01:21:52;;;;;;;5.20;3.00;;;22.60;70.60;;;;;;222120;1267;22511;-57
2023/10/31 01:26:56;;;;;;;4.00;3.20;;;22.60;70.70;;;;;;222434;1269;24370;-58
2023/10/31 01:32:00;;;;;;;5.10;3.20;;;22.60;70.30;;;;;;221997;1270;24481;-58
2023/10/31 01:37:13;;;;;;;4.20;3.30;;;22.60;70.50;;;;;;221920;1270;22516;-57
2023/10/31 01:42:18;;;;;;;5.00;3.30;;;22.60;70.40;;;;;;221973;1268;25350;-58
2023/10/31 01:47:24;;;;;;;6.70;3.40;;;22.60;70.50;;;;;;222231;1267;24100;-58
2023/10/31 01:52:29;;;;;;;7.70;2.90;;;22.60;70.90;;;;;;222016;1259;25311;-58
2023/10/31 01:57:33;;;;;;;3.30;2.90;;;22.60;70.40;;;;;;222201;1249;22606;-56
2023/10/31 02:02:40;;;;;;;3.80;2.80;;;22.60;70.80;;;;;;222285;1259;22770;-55
2023/10/31 02:07:46;;;;;;;3.30;2.30;;;22.60;70.50;;;;;;222063;1270;26615;-56
2023/10/31 02:12:50;;;;;;;3.50;2.70;;;22.60;70.20;;;;;;222255;1267;25090;-57
2023/10/31 02:17:55;;;;;;;3.20;2.70;;;22.60;70.40;;;;;;222013;1266;22872;-58
2023/10/31 02:23:01;;;;;;;4.80;3.70;;;22.60;70.80;;;;;;221834;1268;25349;-57
2023/10/31 02:28:06;;;;;;;6.10;3.10;;;22.60;70.70;;;;;;221587;1262;26628;-58
2023/10/31 02:33:10;;;;;;;4.90;2.90;;;22.60;70.60;;;;;;226248;1268;22535;-57
2023/10/31 02:38:15;;;;;;;3.90;2.50;;;22.60;69.90;;;;;;224676;1268;23867;-56
2023/10/31 02:43:19;;;;;;;2.90;2.70;;;22.70;69.80;;;;;;223331;1270;25391;-56
2023/10/31 02:48:24;;;;;;;2.80;2.40;;;22.70;70.00;;;;;;222448;1269;22598;-57
2023/10/31 02:53:28;;;;;;;3.90;2.50;;;22.60;70.10;;;;;;222176;1264;24228;-58
2023/10/31 02:58:32;;;;;;;3.30;2.50;;;22.60;69.80;;;;;;221709;1270;22613;-57
2023/10/31 03:03:37;;;;;;;3.10;2.30;;;22.60;70.10;;;;;;222088;1264;24783;-58
2023/10/31 03:08:42;;;;;;;3.60;2.50;;;22.50;70.10;;;;;;221992;1269;25647;-58
2023/10/31 03:13:46;;;;;;;3.10;2.50;;;22.60;69.90;;;;;;221854;1262;22636;-57
2023/10/31 03:18:50;;;;;;;3.10;2.70;;;22.50;70.10;;;;;;222170;1270;25395;-58
2023/10/31 03:23:55;;;;;;;4.30;2.40;;;22.50;70.30;;;;;;221913;1268;24449;-57
2023/10/31 03:29:00;;;;;;;2.80;2.20;;;22.50;70.00;;;;;;222196;1269;25349;-57
2023/10/31 03:34:04;;;;;;;3.50;2.50;;;22.50;70.00;;;;;;222077;1270;22536;-56
2023/10/31 03:39:08;;;;;;;2.70;2.20;;;22.50;69.80;;;;;;222131;1268;24481;-57
2023/10/31 03:44:12;;;;;;;3.30;2.30;;;22.50;70.00;;;;;;221935;1264;25410;-57
2023/10/31 03:49:17;;;;;;;5.50;2.30;;;22.40;69.90;;;;;;221934;1270;22641;-58
2023/10/31 03:54:22;;;;;;;4.30;2.60;;;22.50;69.90;;;;;;221876;1270;22849;-56
2023/10/31 03:59:26;;;;;;;3.60;2.20;;;22.50;70.20;;;;;;222013;1266;22541;-58
2023/10/31 04:04:30;;;;;;;2.70;2.50;;;22.40;69.70;;;;;;222180;1269;22771;-56
2023/10/31 04:09:34;;;;;;;3.30;2.40;;;22.40;69.50;;;;;;222010;1265;22542;-56
2023/10/31 04:14:38;;;;;;;3.10;2.10;;;22.40;69.60;;;;;;222204;1258;22516;-58
2023/10/31 04:19:43;;;;;;;3.40;2.40;;;22.40;69.70;;;;;;222013;1268;25471;-58
2023/10/31 04:24:50;;;;;;;6.40;2.40;;;22.40;69.80;;;;;;221863;1270;22587;-57
2023/10/31 04:29:54;;;;;;;3.60;2.70;;;22.50;69.40;;;;;;222012;1267;25188;-58
2023/10/31 04:34:58;;;;;;;3.00;2.30;;;22.40;69.10;;;;;;222002;1264;22573;-58
2023/10/31 04:40:03;;;;;;;2.60;2.40;;;22.40;68.90;;;;;;222176;1270;22528;-58
2023/10/31 04:45:08;;;;;;;4.10;2.20;;;22.40;69.20;;;;;;222123;1267;22540;-58
2023/10/31 04:50:13;;;;;;;4.30;2.60;;;22.40;69.20;;;;;;222019;1270;22506;-57
2023/10/31 04:55:17;;;;;;;4.20;1.60;;;22.30;69.80;;;;;;221813;1260;22512;-58
2023/10/31 05:00:21;;;;;;;4.30;2.60;;;22.30;69.70;;;;;;221885;1267;22521;-58
2023/10/31 05:05:25;;;;;;;2.20;1.90;;;22.40;69.80;;;;;;221910;1264;22510;-58
2023/10/31 05:10:30;;;;;;;3.00;2.00;;;22.30;69.10;;;;;;222047;1264;23010;-58
2023/10/31 05:15:34;;;;;;;3.20;2.60;;;22.30;68.80;;;;;;221774;1268;22541;-57
2023/10/31 05:20:39;;;;;;;2.20;2.00;;;22.30;69.10;;;;;;222103;1267;22686;-57
2023/10/31 05:25:44;;;;;;;3.90;2.30;;;22.30;68.80;;;;;;222197;1262;22778;-57
2023/10/31 05:30:49;;;;;;;2.00;1.90;;;22.30;68.70;;;;;;221945;1267;24173;-58
2023/10/31 05:35:56;;;;;;;2.40;2.00;;;22.30;68.70;;;;;;221863;1270;22534;-56
2023/10/31 05:41:00;;;;;;;2.30;2.10;;;22.20;68.40;;;;;;222001;1267;24040;-57
2023/10/31 05:46:05;;;;;;;2.20;1.80;;;22.30;68.30;;;;;;221842;1267;22570;-57
2023/10/31 05:51:14;;;;;;;3.10;2.20;;;22.30;68.60;;;;;;222164;1267;22715;-57
2023/10/31 05:56:18;;;;;;;2.70;1.90;;;22.30;68.20;;;;;;222209;1266;22576;-57
2023/10/31 06:01:23;;;;;;;2.70;1.70;;;22.20;69.30;;;;;;222146;1264;22524;-56
2023/10/31 06:06:27;;;;;;;1.90;1.80;;;22.20;68.90;;;;;;221906;1264;24242;-55
2023/10/31 06:11:31;;;;;;;2.50;2.10;;;22.30;69.20;;;;;;221895;1264;22641;-57
2023/10/31 06:16:43;;;;;;;3.00;2.20;;;22.20;68.60;;;;;;222156;1264;22606;-57
2023/10/31 06:21:48;;;;;;;2.50;1.90;;;22.20;68.50;;;;;;222129;1267;22516;-56
2023/10/31 06:26:52;;;;;;;5.50;2.20;;;22.20;69.40;;;;;;222056;1265;23810;-57
2023/10/31 06:31:56;;;;;;;2.20;1.90;;;22.20;68.70;;;;;;221947;1267;24225;-56
2023/10/31 06:37:01;;;;;;;2.20;1.70;;;22.20;68.40;;;;;;222444;1263;25400;-57
2023/10/31 06:42:05;;;;;;;1.90;1.80;;;22.20;68.40;;;;;;222002;1267;24198;-60
2023/10/31 06:47:09;;;;;;;2.30;1.80;;;22.20;68.40;;;;;;222173;1267;22519;-57
2023/10/31 06:52:13;;;;;;;1.70;1.60;;;22.20;69.40;;;;;;222047;1264;22531;-57
2023/10/31 06:57:17;;;;;;;2.30;1.70;;;22.20;68.50;;;;;;222055;1267;25173;-56
2023/10/31 07:02:22;;;;;;;2.20;1.80;;;22.20;68.70;;;;;;221940;1262;24223;-57
2023/10/31 07:07:26;;;;;;;4.80;1.80;;;22.20;69.50;;;;;;221709;1270;22657;-49
2023/10/31 07:12:31;;;;;;;2.00;1.80;;;22.20;70.00;;;;;;221914;1270;24252;-53
2023/10/31 07:17:36;;;;;;;5.20;2.20;;;22.30;71.20;;;;;;222042;1270;24270;-52
2023/10/31 07:22:40;;;;;;;12.60;5.00;;;22.40;70.80;;;;;;221898;1268;25242;-50
2023/10/31 07:27:44;;;;;;;7.60;1.80;;;22.60;70.70;;;;;;221716;1266;22519;-52
2023/10/31 07:32:48;;;;;;;4.80;2.10;;;22.70;70.10;;;;;;222045;1264;23005;-53
2023/10/31 07:37:52;;;;;;;4.90;1.80;;;22.80;70.40;;;;;;221914;1266;22813;-52
2023/10/31 07:42:57;;;;;;;3.20;1.90;;;22.90;70.60;;;;;;221796;1264;22516;-52
2023/10/31 07:48:01;;;;;;;2.10;1.80;;;22.90;70.40;;;;;;221878;1265;24197;-52
2023/10/31 07:53:06;;;;;;;4.30;2.10;;;23.00;70.20;;;;;;222246;1263;22513;-51
2023/10/31 07:58:10;;;;;;;3.00;1.90;;;23.00;70.00;;;;;;221817;1269;25274;-52
2023/10/31 08:03:14;;;;;;;8.30;2.40;;;23.00;70.50;;;;;;221707;1263;25308;-52
2023/10/31 08:08:22;;;;;;;3.70;1.90;;;23.00;70.50;;;;;;221732;1262;24264;-49
2023/10/31 08:13:26;;;;;;;7.40;2.10;;;23.00;70.50;;;;;;221731;1268;162917;-50
2023/10/31 08:18:31;;;;;;;7.70;2.60;;;23.00;70.20;;;;;;221840;1257;23774;-51
2023/10/31 08:23:40;;;;;;;2.50;1.70;;;23.10;70.30;;;;;;222018;1264;22638;-50
2023/10/31 08:28:44;;;;;;;12.00;1.80;;;23.10;70.40;;;;;;221808;1266;24211;-52
2023/10/31 08:33:48;;;;;;;4.30;1.80;;;23.20;70.20;;;;;;221754;1264;22684;-51
2023/10/31 08:38:52;;;;;;;5.30;1.70;;;23.20;70.20;;;;;;222111;1267;22533;-50
2023/10/31 08:43:58;;;;;;;3.50;1.50;;;23.20;70.60;;;;;;221999;1264;23898;-48
2023/10/31 08:49:02;;;;;;;4.60;1.60;;;23.10;69.10;;;;;;221844;1265;24192;-53
2023/10/31 08:54:08;;;;;;;4.20;1.70;;;23.10;69.30;;;;;;222075;1270;24074;-51
2023/10/31 08:59:13;;;;;;;2.40;1.60;;;23.10;69.30;;;;;;221956;1264;22513;-50
2023/10/31 09:04:17;;;;;;;3.90;1.70;;;23.10;69.60;;;;;;222289;1267;22650;-47
2023/10/31 09:09:22;;;;;;;3.90;1.30;;;23.10;69.30;;;;;;222018;1266;22521;-50
2023/10/31 09:14:26;;;;;;;12.80;1.90;;;23.10;69.00;;;;;;222096;1264;24227;-48
2023/10/31 09:19:30;;;;;;;2.30;1.80;;;23.10;69.20;;;;;;222110;1264;22636;-50
2023/10/31 09:24:34;;;;;;;1.50;1.20;;;23.10;69.10;;;;;;221744;1259;24203;-49
2023/10/31 09:29:41;;;;;;;2.60;1.30;;;23.00;68.50;;;;;;221969;1270;22513;-49
2023/10/31 09:34:45;;;;;;;2.80;1.50;;;23.00;68.30;;;;;;221827;1262;24990;-49
2023/10/31 09:39:49;;;;;;;2.70;1.10;;;23.00;67.30;;;;;;222049;1262;23916;-47
2023/10/31 09:44:55;;;;;;;1.40;1.10;;;23.00;67.20;;;;;;221931;1267;22524;-50
2023/10/31 09:49:59;;;;;;;2.80;1.30;;;23.00;66.60;;;;;;221944;1267;22534;-49
2023/10/31 09:55:05;;;;;;;2.00;1.10;;;23.00;66.40;;;;;;222009;1264;22634;-51
2023/10/31 10:00:10;;;;;;;1.40;1.00;;;23.00;66.30;;;;;;221975;1262;22640;-50
2023/10/31 10:05:17;;;;;;;1.10;1.00;;;23.00;65.50;;;;;;222133;1246;24206;-52
2023/10/31 10:10:21;;;;;;;1.80;0.80;;;23.00;65.20;;;;;;222017;1262;23896;-50
2023/10/31 10:15:26;;;;;;;3.00;1.10;;;23.00;65.10;;;;;;221895;1270;26839;-52
2023/10/31 10:20:32;;;;;;;1.00;0.90;;;23.00;65.10;;;;;;221807;1270;23839;-51
2023/10/31 10:25:36;;;;;;;2.30;1.20;;;23.00;65.40;;;;;;221733;1259;24273;-50
2023/10/31 10:30:49;;;;;;;1.30;1.30;;;22.90;65.90;;;;;;221691;1267;24348;-48
2023/10/31 10:35:55;;;;;;;1.90;1.20;;;22.90;64.70;;;;;;221680;1270;22534;-47
2023/10/31 10:41:02;;;;;;;1.10;0.90;;;22.90;63.40;;;;;;221636;1265;25233;-50
2023/10/31 10:46:10;;;;;;;1.20;0.90;;;22.80;63.10;;;;;;221795;1270;22535;-49
2023/10/31 10:51:26;;;;;;;0.70;0.70;;;22.80;62.80;;;;;;221737;1261;24271;-52
2023/10/31 10:56:46;;;;;;;2.60;0.80;;;22.70;61.90;;;;;;221975;1265;25325;-52
2023/10/31 11:01:52;;;;;;;1.60;0.80;;;22.70;61.60;;;;;;221988;1263;22517;-50
2023/10/31 11:06:57;;;;;;;2.20;0.70;;;22.70;61.50;;;;;;221996;1264;25648;-47
2023/10/31 11:12:02;;;;;;;2.40;0.80;;;22.60;60.80;;;;;;222100;1265;22644;-47
2023/10/31 11:17:16;;;;;;;4.50;0.90;;;22.60;60.90;;;;;;221880;1265;22539;-45
2023/10/31 11:22:21;;;;;;;0.90;0.70;;;22.50;60.20;;;;;;222262;1270;25633;-48
2023/10/31 11:27:28;;;;;;;3.80;0.90;;;22.60;59.70;;;;;;222463;1264;25452;-50
2023/10/31 11:32:33;;;;;;;2.00;0.80;;;22.60;58.80;;;;;;222054;1262;22533;-47
2023/10/31 11:37:37;;;;;;;1.00;0.60;;;22.50;60.50;;;;;;221631;1265;24499;-51
2023/10/31 11:42:42;;;;;;;1.70;0.50;;;22.50;58.50;;;;;;221664;1264;22514;-48
2023/10/31 11:47:48;;;;;;;1.20;0.40;;;22.40;57.90;;;;;;221847;1265;25185;-48
2023/10/31 11:53:06;;;;;;;0.90;0.80;;;22.40;57.80;;;;;;221774;1259;24331;-52
2023/10/31 11:58:25;;;;;;;2.00;0.60;;;22.40;59.70;;;;;;222045;1265;22625;-53
2023/10/31 12:03:47;;;;;;;0.70;0.60;;;22.50;58.90;;;;;;222095;1263;22521;-51
2023/10/31 12:08:51;;;;;;;0.80;0.70;;;22.40;57.70;;;;;;221811;1265;22614;-50
2023/10/31 12:14:01;;;;;;;1.60;0.60;;;22.40;57.30;;;;;;222024;1247;22514;-54
2023/10/31 12:19:06;;;;;;;0.60;0.60;;;22.40;57.70;;;;;;221960;1267;24332;-51
2023/10/31 12:24:13;;;;;;;2.20;0.80;;;22.30;57.50;;;;;;222001;1262;26550;-52
2023/10/31 12:29:18;;;;;;;1.90;0.70;;;22.30;57.20;;;;;;221965;1267;22520;-54
2023/10/31 12:34:24;;;;;;;7.10;1.30;;;22.30;57.00;;;;;;222041;1264;22638;-53
2023/10/31 12:39:30;;;;;;;2.60;1.30;;;22.30;56.10;;;;;;221995;1265;25244;-54
2023/10/31 12:44:35;;;;;;;3.40;1.10;;;22.30;55.90;;;;;;222200;1264;22639;-52
2023/10/31 12:49:39;;;;;;;2.60;1.00;;;22.30;55.40;;;;;;222057;1268;24267;-52
2023/10/31 12:54:44;;;;;;;1.50;0.80;;;22.30;55.00;;;;;;221749;1266;24243;-52
2023/10/31 12:59:48;;;;;;;1.20;0.90;;;22.30;55.10;;;;;;222133;1265;22538;-53
2023/10/31 13:04:53;;;;;;;1.10;0.80;;;22.30;55.70;;;;;;222044;1262;22593;-51
2023/10/31 13:09:57;;;;;;;2.00;1.00;;;22.40;56.70;;;;;;222624;1270;23385;-52
2023/10/31 13:15:02;;;;;;;2.50;0.80;;;22.40;56.40;;;;;;222233;1264;24193;-52
2023/10/31 13:20:11;;;;;;;1.10;0.70;;;22.30;56.10;;;;;;222235;1263;23019;-53
2023/10/31 13:25:16;;;;;;;2.10;0.80;;;22.30;55.50;;;;;;222116;1251;24053;-53
2023/10/31 13:30:23;;;;;;;2.90;1.20;;;22.30;55.60;;;;;;222103;1262;24411;-54
2023/10/31 13:35:28;;;;;;;0.90;0.70;;;22.30;55.80;;;;;;222078;1266;23242;-54
2023/10/31 13:40:32;;;;;;;1.80;0.60;;;22.40;57.00;;;;;;221865;1255;24755;-53
2023/10/31 13:45:37;;;;;;;2.30;0.90;;;22.40;57.80;;;;;;222372;1268;24250;-50
2023/10/31 13:50:41;;;;;;;3.40;0.50;;;22.40;58.20;;;;;;221729;1267;22518;-51
2023/10/31 13:55:45;;;;;;;0.70;0.70;;;22.40;57.30;;;;;;221963;1270;22543;-51
2023/10/31 14:00:50;;;;;;;2.80;0.60;;;22.40;57.50;;;;;;222025;1262;24196;-53
2023/10/31 14:05:55;;;;;;;2.50;1.00;;;22.40;57.00;;;;;;221939;1267;24197;-52
2023/10/31 14:11:02;;;;;;;6.30;1.70;;;22.40;58.90;;;;;;221899;1265;22519;-52
2023/10/31 14:16:07;;;;;;;7.00;1.40;;;22.40;60.60;;;;;;222201;1270;22518;-52
2023/10/31 14:21:12;;;;;;;2.90;1.10;;;22.50;60.60;;;;;;222015;1262;22564;-53
2023/10/31 14:26:16;;;;;;;8.10;1.10;;;22.50;62.30;;;;;;222313;1267;22565;-52
2023/10/31 14:31:21;;;;;;;7.00;2.00;;;22.50;60.70;;;;;;222057;1264;23141;-50
2023/10/31 14:36:25;;;;;;;13.80;2.10;;;22.50;61.50;;;;;;222145;1252;23887;-50
2023/10/31 14:41:33;;;;;;;8.20;3.70;;;22.50;61.30;;;;;;221889;1267;24261;-48
2023/10/31 14:46:38;;;;;;;3.50;2.60;;;22.40;61.10;;;;;;222470;1265;22748;-52
2023/10/31 14:51:42;;;;;;;4.30;2.70;;;22.30;59.00;;;;;;222496;1265;24857;-50
2023/10/31 14:56:47;;;;;;;4.60;2.40;;;22.30;59.40;;;;;;221912;1264;22532;-51
2023/10/31 15:01:51;;;;;;;3.00;2.10;;;22.20;59.50;;;;;;222082;1256;24264;-52
2023/10/31 15:06:55;;;;;;;4.00;2.40;;;22.40;59.90;;;;;;222002;1270;22527;-53
2023/10/31 15:11:59;;;;;;;3.10;1.80;;;22.40;60.00;;;;;;222050;1266;22647;-51
2023/10/31 15:17:04;;;;;;;5.30;1.80;;;22.30;60.40;;;;;;222098;1261;22532;-52
2023/10/31 15:22:08;;;;;;;4.30;1.80;;;22.20;60.80;;;;;;221876;1271;22496;-52
2023/10/31 15:27:17;;;;;;;4.10;1.60;;;22.30;60.70;;;;;;221655;1261;22502;-51
2023/10/31 15:32:21;;;;;;;2.10;1.20;;;22.30;61.00;;;;;;221940;1265;22564;-51
2023/10/31 15:37:26;;;;;;;2.70;1.40;;;22.30;61.80;;;;;;221767;1268;22544;-51
2023/10/31 15:42:31;;;;;;;3.20;1.20;;;22.20;61.20;;;;;;221644;1268;22570;-54
2023/10/31 15:47:37;;;;;;;3.00;1.40;;;22.20;61.20;;;;;;221862;1246;23883;-52
2023/10/31 15:52:42;;;;;;;3.20;1.40;;;22.30;62.00;;;;;;224379;1252;25406;-46
2023/10/31 15:57:47;;;;;;;5.70;1.50;;;22.40;62.00;;;;;;221965;1267;22648;-46
2023/10/31 16:02:51;;;;;;;3.60;2.00;;;22.40;63.30;;;;;;222396;1270;26193;-51
2023/10/31 16:07:56;;;;;;;6.70;1.80;;;22.40;64.40;;;;;;222090;1270;24509;-52
2023/10/31 16:13:00;;;;;;;5.50;1.80;;;22.50;65.90;;;;;;221983;1265;22523;-50
2023/10/31 16:18:06;;;;;;;12.50;1.80;;;22.60;67.00;;;;;;222195;1256;23895;-47
2023/10/31 16:23:10;;;;;;;14.50;6.80;;;22.70;66.80;;;;;;221809;1265;22633;-56
2023/10/31 16:28:14;;;;;;;12.70;4.70;;;22.80;67.50;;;;;;221953;1267;24235;-56
2023/10/31 16:33:19;;;;;;;9.50;4.60;;;22.90;67.20;;;;;;222061;1266;22771;-57
2023/10/31 16:38:32;;;;;;;9.40;3.50;;;23.00;66.40;;;;;;222233;1267;25090;-57
2023/10/31 16:43:39;;;;;;;13.80;4.20;;;23.10;66.30;;;;;;222320;1265;25360;-57
2023/10/31 16:48:44;;;;;;;12.00;3.50;;;23.20;65.80;;;;;;221977;1266;22515;-56
2023/10/31 16:53:48;;;;;;;10.20;3.10;;;23.20;65.30;;;;;;221849;1268;22524;-56
2023/10/31 16:58:53;;;;;;;17.40;3.60;;;23.20;64.80;;;;;;222372;1267;25231;-54
2023/10/31 17:04:00;;;;;;;13.10;2.40;;;23.20;64.50;;;;;;222038;1267;22550;-57
2023/10/31 17:09:05;;;;;;;7.90;2.70;;;23.10;64.40;;;;;;222015;1270;24223;-56
2023/10/31 17:14:09;;;;;;;4.30;2.60;;;23.10;64.20;;;;;;222183;1267;23495;-57
2023/10/31 17:19:14;;;;;;;5.80;2.60;;;23.00;64.00;;;;;;222115;1270;24196;-56
2023/10/31 17:24:21;;;;;;;7.00;2.90;;;23.00;64.20;;;;;;222232;1270;22533;-56
2023/10/31 17:29:37;;;;;;;7.20;2.20;;;23.00;63.80;;;;;;221947;1270;22553;-56
2023/10/31 17:34:41;;;;;;;6.00;2.40;;;23.00;63.60;;;;;;222004;1270;22535;-55
2023/10/31 17:39:46;;;;;;;6.20;2.20;;;23.00;63.60;;;;;;221786;1268;25476;-50
2023/10/31 17:44:50;;;;;;;8.50;2.10;;;23.00;63.60;;;;;;221709;1270;23890;-49
2023/10/31 17:49:55;;;;;;;4.10;2.20;;;23.00;63.40;;;;;;221990;1262;22524;-53
2023/10/31 17:55:00;;;;;;;4.40;2.40;;;23.10;63.80;;;;;;221826;1269;24218;-51
2023/10/31 18:00:05;;;;;;;4.80;2.10;;;23.00;63.30;;;;;;222067;1266;23777;-50
2023/10/31 18:05:17;;;;;;;7.60;1.60;;;23.00;63.30;;;;;;222144;1270;24206;-53
2023/10/31 18:10:24;;;;;;;4.20;1.70;;;23.20;62.70;;;;;;222490;1267;25336;-51
2023/10/31 18:15:30;;;;;;;5.90;2.30;;;23.10;62.60;;;;;;222201;1265;25447;-60
2023/10/31 18:20:35;;;;;;;6.80;2.00;;;23.20;62.40;;;;;;222203;1267;24205;-51
2023/10/31 18:25:40;;;;;;;2.10;1.70;;;23.20;62.20;;;;;;222123;1263;25231;-51
2023/10/31 18:30:45;;;;;;;3.40;1.80;;;23.20;62.40;;;;;;222341;1248;24225;-51
2023/10/31 18:35:50;;;;;;;2.60;1.70;;;23.10;62.40;;;;;;221983;1269;23931;-52
2023/10/31 18:40:55;;;;;;;2.40;1.60;;;23.10;62.50;;;;;;222299;1270;24346;-51
2023/10/31 18:45:59;;;;;;;2.50;1.60;;;23.00;62.70;;;;;;221954;1270;22595;-53
2023/10/31 18:51:05;;;;;;;5.50;2.10;;;22.90;62.70;;;;;;221929;1262;24251;-58
2023/10/31 18:56:10;;;;;;;1.70;1.30;;;22.80;63.00;;;;;;222134;1267;26658;-51
2023/10/31 19:01:17;;;;;;;2.30;1.40;;;22.80;63.00;;;;;;222051;1256;22573;-50
2023/10/31 19:06:22;;;;;;;5.10;1.60;;;22.80;63.20;;;;;;221860;1258;23482;-48
2023/10/31 19:11:28;;;;;;;3.90;1.20;;;22.80;62.80;;;;;;222071;1255;22548;-49
2023/10/31 19:16:34;;;;;;;2.70;1.20;;;22.70;63.10;;;;;;222011;1268;25399;-50
2023/10/31 19:21:40;;;;;;;4.70;1.40;;;22.80;62.80;;;;;;221909;1259;24187;-53
2023/10/31 19:26:45;;;;;;;3.70;1.50;;;22.70;62.90;;;;;;221824;1266;22537;-58
2023/10/31 19:31:51;;;;;;;3.40;1.90;;;22.60;62.90;;;;;;221949;1265;24374;-57
2023/10/31 19:36:57;;;;;;;18.50;2.70;;;22.60;62.90;;;;;;221848;1268;25336;-58
2023/10/31 19:42:03;;;;;;;12.60;2.20;;;22.80;62.80;;;;;;222178;1269;22536;-57
2023/10/31 19:47:09;;;;;;;12.30;1.90;;;23.00;62.50;;;;;;222070;1263;22594;-58
2023/10/31 19:52:17;;;;;;;6.60;1.60;;;22.90;62.30;;;;;;222277;1270;25258;-58
2023/10/31 19:57:23;;;;;;;9.20;1.80;;;22.80;62.80;;;;;;222282;1256;22642;-60
2023/10/31 20:02:30;;;;;;;5.10;2.00;;;22.90;61.80;;;;;;222063;1270;24258;-60
2023/10/31 20:07:35;;;;;;;8.70;2.20;;;22.70;62.60;;;;;;221890;1268;24108;-58
2023/10/31 20:12:41;;;;;;;8.20;1.80;;;22.80;63.70;;;;;;221852;1270;24191;-55
2023/10/31 20:17:48;;;;;;;6.10;1.70;;;22.80;63.90;;;;;;221647;1268;283056;-56
2023/10/31 20:22:53;;;;;;;4.00;1.80;;;22.70;63.80;;;;;;222072;1267;22559;-54
2023/10/31 20:28:01;;;;;;;7.70;1.80;;;22.70;64.30;;;;;;221841;1262;24388;-56
2023/10/31 20:33:06;;;;;;;8.20;2.00;;;23.10;63.30;;;;;;221973;1264;25314;-56
2023/10/31 20:38:11;;;;;;;5.80;1.40;;;23.50;62.70;;;;;;222076;1268;22521;-53
2023/10/31 20:43:15;;;;;;;7.00;1.60;;;23.60;62.80;;;;;;222063;1267;22531;-51
2023/10/31 20:48:21;;;;;;;7.40;1.60;;;23.80;62.30;;;;;;222028;1270;26708;-49
2023/10/31 20:53:27;;;;;;;8.60;1.90;;;23.70;61.90;;;;;;221980;1265;22683;-51
2023/10/31 20:58:32;;;;;;;8.20;1.80;;;23.60;61.90;;;;;;222309;1264;24346;-50
2023/10/31 21:03:36;;;;;;;7.70;2.00;;;23.60;62.30;;;;;;222332;1266;22571;-53
2023/10/31 21:08:41;;;;;;;5.20;1.50;;;23.60;63.20;;;;;;221666;1265;25424;-50
2023/10/31 21:13:55;;;;;;;8.00;1.70;;;23.80;62.50;;;;;;221887;1268;24191;-52
2023/10/31 21:18:59;;;;;;;7.10;1.60;;;23.90;61.50;;;;;;221882;1270;23017;-48
2023/10/31 21:24:06;;;;;;;5.40;1.60;;;24.10;61.40;;;;;;221921;1256;24300;-53
2023/10/31 21:29:10;;;;;;;5.10;1.30;;;24.20;60.60;;;;;;222063;1270;22524;-48
2023/10/31 21:34:14;;;;;;;5.30;1.70;;;24.20;60.70;;;;;;222207;1264;22638;-54
2023/10/31 21:39:21;;;;;;;6.10;1.80;;;24.20;61.10;;;;;;222075;1267;22850;-54
2023/10/31 21:44:25;;;;;;;6.30;1.90;;;24.10;60.60;;;;;;222249;1267;24263;-54
2023/10/31 21:49:31;;;;;;;9.10;3.80;;;24.10;61.20;;;;;;222166;1270;22530;-55
2023/10/31 21:54:35;;;;;;;9.50;3.80;;;24.00;63.10;;;;;;222157;1268;25327;-55
2023/10/31 21:59:39;;;;;;;7.20;3.20;;;24.00;63.70;;;;;;221858;1267;22522;-51
2023/10/31 22:04:45;;;;;;;11.70;3.30;;;24.00;62.90;;;;;;221987;1262;22518;-52
2023/10/31 22:09:50;;;;;;;9.50;3.10;;;24.00;62.80;;;;;;222055;1269;25288;-49
2023/10/31 22:14:54;;;;;;;9.70;2.90;;;24.10;63.00;;;;;;222093;1263;22524;-49
2023/10/31 22:20:00;;;;;;;10.30;3.40;;;24.30;62.60;;;;;;222031;1270;22553;-47
2023/10/31 22:25:05;;;;;;;9.80;2.70;;;24.30;62.50;;;;;;221939;1267;22511;-49
2023/10/31 22:30:10;;;;;;;9.60;3.40;;;24.30;62.30;;;;;;222200;1267;24256;-49
2023/10/31 22:35:14;;;;;;;7.60;3.00;;;24.40;62.80;;;;;;222210;1266;22521;-51
2023/10/31 22:40:18;;;;;;;5.70;2.50;;;24.50;61.60;;;;;;221624;1270;22621;-50
2023/10/31 22:45:22;;;;;;;6.80;2.70;;;24.60;61.30;;;;;;222225;1265;23017;-53
2023/10/31 22:50:27;;;;;;;8.80;3.60;;;24.60;61.70;;;;;;222177;1261;24386;-52
2023/10/31 22:55:33;;;;;;;6.30;2.50;;;24.70;61.50;;;;;;222426;1265;25287;-50
2023/10/31 23:00:39;;;;;;;7.40;2.80;;;24.80;60.90;;;;;;222147;1270;22515;-48
2023/10/31 23:05:44;;;;;;;6.00;2.60;;;24.90;61.20;;;;;;222043;1264;24367;-49
2023/10/31 23:10:49;;;;;;;5.10;2.00;;;25.00;60.60;;;;;;224486;1266;24474;-50
2023/10/31 23:15:53;;;;;;;8.20;3.10;;;25.00;60.40;;;;;;221993;1270;22520;-48
2023/10/31 23:20:57;;;;;;;5.40;2.40;;;25.00;60.90;;;;;;221917;1267;25387;-47
2023/10/31 23:26:01;;;;;;;7.20;2.60;;;24.90;60.80;;;;;;221955;1270;24460;-46
2023/10/31 23:31:05;;;;;;;7.30;2.80;;;24.80;60.90;;;;;;221949;1269;22646;-48
2023/10/31 23:36:10;;;;;;;7.50;2.50;;;24.70;61.10;;;;;;221871;1270;22515;-49
2023/10/31 23:41:14;;;;;;;4.50;2.30;;;24.60;61.40;;;;;;221892;1270;23882;-47
2023/10/31 23:46:18;;;;;;;5.90;2.70;;;24.60;63.30;;;;;;221971;1268;22572;-46
2023/10/31 23:51:23;;;;;;;4.40;2.20;;;24.40;61.90;;;;;;224478;1270;22748;-47
2023/10/31 23:56:28;;;;;;;5.20;2.20;;;24.50;61.60;;;;;;222137;1270;22633;-45
